sensor_id;sensor_type;location;lat;lon;timestamp;temperature;humidity
33269;DHT22;19640;50.944;5.260;2023-08-08T00:00:48;13.80;99.90
33269;DHT22;19640;50.944;5.260;2023-08-08T00:03:14;13.80;99.90
33269;DHT22;19640;50.944;5.260;2023-08-08T00:05:40;13.80;99.90
33269;DHT22;19640;50.944;5.260;2023-08-08T00:08:06;13.90;99.90
33269;DHT22;19640;50.944;5.260;2023-08-08T00:10:32;13.80;99.90
33269;DHT22;19640;50.944;5.260;2023-08-08T00:12:58;13.70;99.90
33269;DHT22;19640;50.944;5.260;2023-08-08T00:15:23;13.70;99.90
33269;DHT22;19640;50.944;5.260;2023-08-08T00:17:49;13.60;99.90
33269;DHT22;19640;50.944;5.260;2023-08-08T00:20:15;13.70;99.90
33269;DHT22;19640;50.944;5.260;2023-08-08T00:22:41;13.70;99.90
33269;DHT22;19640;50.944;5.260;2023-08-08T00:25:07;13.70;99.90
33269;DHT22;19640;50.944;5.260;2023-08-08T00:27:34;13.80;99.90
33269;DHT22;19640;50.944;5.260;2023-08-08T00:30:00;13.80;99.90
33269;DHT22;19640;50.944;5.260;2023-08-08T00:32:26;13.70;99.90
33269;DHT22;19640;50.944;5.260;2023-08-08T00:34:51;13.70;99.90
33269;DHT22;19640;50.944;5.260;2023-08-08T00:37:17;13.80;99.90
33269;DHT22;19640;50.944;5.260;2023-08-08T00:39:43;13.60;99.90
33269;DHT22;19640;50.944;5.260;2023-08-08T00:42:12;13.60;99.90
33269;DHT22;19640;50.944;5.260;2023-08-08T00:44:39;13.60;99.90
33269;DHT22;19640;50.944;5.260;2023-08-08T00:47:08;13.60;99.90
33269;DHT22;19640;50.944;5.260;2023-08-08T00:49:35;13.50;99.90
33269;DHT22;19640;50.944;5.260;2023-08-08T00:52:01;13.50;99.90
33269;DHT22;19640;50.944;5.260;2023-08-08T00:54:27;13.50;99.90
33269;DHT22;19640;50.944;5.260;2023-08-08T00:56:53;13.60;99.90
33269;DHT22;19640;50.944;5.260;2023-08-08T00:59:19;13.60;99.90
33269;DHT22;19640;50.944;5.260;2023-08-08T01:01:45;13.60;99.90
33269;DHT22;19640;50.944;5.260;2023-08-08T01:04:11;13.60;99.90
33269;DHT22;19640;50.944;5.260;2023-08-08T01:09:28;13.50;99.90
33269;DHT22;19640;50.944;5.260;2023-08-08T01:11:56;13.50;99.90
33269;DHT22;19640;50.944;5.260;2023-08-08T01:14:24;13.60;99.90
33269;DHT22;19640;50.944;5.260;2023-08-08T01:16:52;13.50;99.90
33269;DHT22;19640;50.944;5.260;2023-08-08T01:19:27;13.50;99.90
33269;DHT22;19640;50.944;5.260;2023-08-08T01:21:53;13.40;99.90
33269;DHT22;19640;50.944;5.260;2023-08-08T01:24:23;13.40;99.90
33269;DHT22;19640;50.944;5.260;2023-08-08T01:26:52;13.50;99.90
33269;DHT22;19640;50.944;5.260;2023-08-08T01:29:18;13.30;99.90
33269;DHT22;19640;50.944;5.260;2023-08-08T01:31:44;13.30;99.90
33269;DHT22;19640;50.944;5.260;2023-08-08T01:34:10;13.20;99.90
33269;DHT22;19640;50.944;5.260;2023-08-08T01:36:51;13.30;99.90
33269;DHT22;19640;50.944;5.260;2023-08-08T01:39:23;13.30;99.90
33269;DHT22;19640;50.944;5.260;2023-08-08T01:41:50;13.30;99.90
33269;DHT22;19640;50.944;5.260;2023-08-08T01:44:18;13.30;99.90
33269;DHT22;19640;50.944;5.260;2023-08-08T01:46:44;13.30;99.90
33269;DHT22;19640;50.944;5.260;2023-08-08T01:49:09;13.30;99.90
33269;DHT22;19640;50.944;5.260;2023-08-08T01:51:35;13.30;99.90
33269;DHT22;19640;50.944;5.260;2023-08-08T01:54:01;13.20;99.90
33269;DHT22;19640;50.944;5.260;2023-08-08T01:56:26;13.30;99.90
33269;DHT22;19640;50.944;5.260;2023-08-08T01:58:52;13.30;99.90
33269;DHT22;19640;50.944;5.260;2023-08-08T02:01:18;13.30;99.90
33269;DHT22;19640;50.944;5.260;2023-08-08T02:03:43;13.30;99.90
33269;DHT22;19640;50.944;5.260;2023-08-08T02:06:09;13.30;99.90
33269;DHT22;19640;50.944;5.260;2023-08-08T02:08:35;13.30;99.90
33269;DHT22;19640;50.944;5.260;2023-08-08T02:11:00;13.10;99.90
33269;DHT22;19640;50.944;5.260;2023-08-08T02:13:26;13.00;99.90
33269;DHT22;19640;50.944;5.260;2023-08-08T02:15:51;13.10;99.90
33269;DHT22;19640;50.944;5.260;2023-08-08T02:18:18;13.20;99.90
33269;DHT22;19640;50.944;5.260;2023-08-08T02:20:44;13.00;99.90
33269;DHT22;19640;50.944;5.260;2023-08-08T02:23:09;13.10;99.90
33269;DHT22;19640;50.944;5.260;2023-08-08T02:25:35;13.20;99.90
33269;DHT22;19640;50.944;5.260;2023-08-08T02:28:01;13.20;99.90
33269;DHT22;19640;50.944;5.260;2023-08-08T02:30:26;13.20;99.90
33269;DHT22;19640;50.944;5.260;2023-08-08T02:32:52;13.30;99.90
33269;DHT22;19640;50.944;5.260;2023-08-08T02:35:18;13.20;99.90
33269;DHT22;19640;50.944;5.260;2023-08-08T02:37:43;13.30;99.90
33269;DHT22;19640;50.944;5.260;2023-08-08T02:40:09;13.30;99.90
33269;DHT22;19640;50.944;5.260;2023-08-08T02:42:35;13.30;99.90
33269;DHT22;19640;50.944;5.260;2023-08-08T02:45:01;13.20;99.90
33269;DHT22;19640;50.944;5.260;2023-08-08T02:47:26;13.20;99.90
33269;DHT22;19640;50.944;5.260;2023-08-08T02:49:52;13.20;99.90
33269;DHT22;19640;50.944;5.260;2023-08-08T02:52:18;13.20;99.90
33269;DHT22;19640;50.944;5.260;2023-08-08T02:54:44;13.20;99.90
33269;DHT22;19640;50.944;5.260;2023-08-08T02:57:09;13.30;99.90
33269;DHT22;19640;50.944;5.260;2023-08-08T02:59:38;13.30;99.90
33269;DHT22;19640;50.944;5.260;2023-08-08T03:02:04;13.30;99.90
33269;DHT22;19640;50.944;5.260;2023-08-08T03:04:30;13.20;99.90
33269;DHT22;19640;50.944;5.260;2023-08-08T03:06:56;13.10;99.90
33269;DHT22;19640;50.944;5.260;2023-08-08T03:09:21;13.00;99.90
33269;DHT22;19640;50.944;5.260;2023-08-08T03:11:47;13.20;99.90
33269;DHT22;19640;50.944;5.260;2023-08-08T03:14:13;13.10;99.90
33269;DHT22;19640;50.944;5.260;2023-08-08T03:16:39;13.10;99.90
33269;DHT22;19640;50.944;5.260;2023-08-08T03:19:05;13.20;99.90
33269;DHT22;19640;50.944;5.260;2023-08-08T03:21:31;13.10;99.90
33269;DHT22;19640;50.944;5.260;2023-08-08T03:23:57;13.10;99.90
33269;DHT22;19640;50.944;5.260;2023-08-08T03:26:23;13.00;99.90
33269;DHT22;19640;50.944;5.260;2023-08-08T03:28:49;12.90;99.90
33269;DHT22;19640;50.944;5.260;2023-08-08T03:31:16;13.00;99.90
33269;DHT22;19640;50.944;5.260;2023-08-08T03:33:43;13.00;99.90
33269;DHT22;19640;50.944;5.260;2023-08-08T03:36:09;12.90;99.90
33269;DHT22;19640;50.944;5.260;2023-08-08T03:38:35;12.90;99.90
33269;DHT22;19640;50.944;5.260;2023-08-08T03:41:03;12.80;99.90
33269;DHT22;19640;50.944;5.260;2023-08-08T03:43:29;13.00;99.90
33269;DHT22;19640;50.944;5.260;2023-08-08T03:45:55;12.90;99.90
33269;DHT22;19640;50.944;5.260;2023-08-08T03:48:20;12.90;99.90
33269;DHT22;19640;50.944;5.260;2023-08-08T03:50:46;12.80;99.90
33269;DHT22;19640;50.944;5.260;2023-08-08T03:53:12;12.90;99.90
33269;DHT22;19640;50.944;5.260;2023-08-08T03:55:38;12.90;99.90
33269;DHT22;19640;50.944;5.260;2023-08-08T03:58:04;12.90;99.90
33269;DHT22;19640;50.944;5.260;2023-08-08T04:00:31;13.00;99.90
33269;DHT22;19640;50.944;5.260;2023-08-08T04:02:57;13.00;99.90
33269;DHT22;19640;50.944;5.260;2023-08-08T04:05:23;12.80;99.90
33269;DHT22;19640;50.944;5.260;2023-08-08T04:07:49;12.80;99.90
33269;DHT22;19640;50.944;5.260;2023-08-08T04:10:15;12.90;99.90
33269;DHT22;19640;50.944;5.260;2023-08-08T04:12:41;12.90;99.90
33269;DHT22;19640;50.944;5.260;2023-08-08T04:15:06;13.00;99.90
33269;DHT22;19640;50.944;5.260;2023-08-08T04:17:32;13.00;99.90
33269;DHT22;19640;50.944;5.260;2023-08-08T04:19:58;13.00;99.90
33269;DHT22;19640;50.944;5.260;2023-08-08T04:22:24;13.00;99.90
33269;DHT22;19640;50.944;5.260;2023-08-08T04:24:50;13.00;99.90
33269;DHT22;19640;50.944;5.260;2023-08-08T04:27:15;12.90;99.90
33269;DHT22;19640;50.944;5.260;2023-08-08T04:29:41;13.00;99.90
33269;DHT22;19640;50.944;5.260;2023-08-08T04:32:07;13.00;99.90
33269;DHT22;19640;50.944;5.260;2023-08-08T04:34:32;13.00;99.90
33269;DHT22;19640;50.944;5.260;2023-08-08T04:36:58;13.00;99.90
33269;DHT22;19640;50.944;5.260;2023-08-08T04:39:24;13.00;99.90
33269;DHT22;19640;50.944;5.260;2023-08-08T04:41:50;13.10;99.90
33269;DHT22;19640;50.944;5.260;2023-08-08T04:44:15;13.10;99.90
33269;DHT22;19640;50.944;5.260;2023-08-08T04:46:41;13.10;99.90
33269;DHT22;19640;50.944;5.260;2023-08-08T04:49:07;13.00;99.90
33269;DHT22;19640;50.944;5.260;2023-08-08T04:51:33;13.10;99.90
33269;DHT22;19640;50.944;5.260;2023-08-08T04:53:58;13.10;99.90
33269;DHT22;19640;50.944;5.260;2023-08-08T04:56:24;13.00;99.90
33269;DHT22;19640;50.944;5.260;2023-08-08T04:58:50;13.10;99.90
33269;DHT22;19640;50.944;5.260;2023-08-08T05:01:15;13.20;99.90
33269;DHT22;19640;50.944;5.260;2023-08-08T05:03:43;13.20;99.90
33269;DHT22;19640;50.944;5.260;2023-08-08T05:06:09;13.20;99.90
33269;DHT22;19640;50.944;5.260;2023-08-08T05:08:34;13.10;99.90
33269;DHT22;19640;50.944;5.260;2023-08-08T05:11:00;13.10;99.90
33269;DHT22;19640;50.944;5.260;2023-08-08T05:13:26;13.20;99.90
33269;DHT22;19640;50.944;5.260;2023-08-08T05:15:52;13.30;99.90
33269;DHT22;19640;50.944;5.260;2023-08-08T05:18:17;13.30;99.90
33269;DHT22;19640;50.944;5.260;2023-08-08T05:20:43;13.40;99.90
33269;DHT22;19640;50.944;5.260;2023-08-08T05:23:09;13.60;99.90
33269;DHT22;19640;50.944;5.260;2023-08-08T05:25:34;13.50;99.90
33269;DHT22;19640;50.944;5.260;2023-08-08T05:28:00;13.50;99.90
33269;DHT22;19640;50.944;5.260;2023-08-08T05:30:26;13.50;99.90
33269;DHT22;19640;50.944;5.260;2023-08-08T05:32:52;13.40;99.90
33269;DHT22;19640;50.944;5.260;2023-08-08T05:35:18;13.50;99.90
33269;DHT22;19640;50.944;5.260;2023-08-08T05:37:44;13.70;99.90
33269;DHT22;19640;50.944;5.260;2023-08-08T05:40:10;13.90;99.90
33269;DHT22;19640;50.944;5.260;2023-08-08T05:42:37;13.90;99.90
33269;DHT22;19640;50.944;5.260;2023-08-08T05:45:03;13.90;99.90
33269;DHT22;19640;50.944;5.260;2023-08-08T05:47:28;14.10;99.90
33269;DHT22;19640;50.944;5.260;2023-08-08T05:49:55;14.10;99.90
33269;DHT22;19640;50.944;5.260;2023-08-08T05:52:21;14.10;99.90
33269;DHT22;19640;50.944;5.260;2023-08-08T05:54:47;14.20;99.90
33269;DHT22;19640;50.944;5.260;2023-08-08T05:57:13;14.20;99.90
33269;DHT22;19640;50.944;5.260;2023-08-08T05:59:38;14.50;99.90
33269;DHT22;19640;50.944;5.260;2023-08-08T06:02:04;14.40;99.90
33269;DHT22;19640;50.944;5.260;2023-08-08T06:04:30;14.50;99.90
33269;DHT22;19640;50.944;5.260;2023-08-08T06:06:56;14.50;99.90
33269;DHT22;19640;50.944;5.260;2023-08-08T06:09:21;14.60;99.90
33269;DHT22;19640;50.944;5.260;2023-08-08T06:11:48;14.70;99.90
33269;DHT22;19640;50.944;5.260;2023-08-08T06:14:14;14.70;99.90
33269;DHT22;19640;50.944;5.260;2023-08-08T06:16:39;14.60;99.90
33269;DHT22;19640;50.944;5.260;2023-08-08T06:19:06;14.80;99.90
33269;DHT22;19640;50.944;5.260;2023-08-08T06:21:32;14.80;99.90
33269;DHT22;19640;50.944;5.260;2023-08-08T06:23:57;14.90;99.90
33269;DHT22;19640;50.944;5.260;2023-08-08T06:26:25;14.80;99.90
33269;DHT22;19640;50.944;5.260;2023-08-08T06:28:51;14.80;99.90
33269;DHT22;19640;50.944;5.260;2023-08-08T06:31:17;15.00;99.90
33269;DHT22;19640;50.944;5.260;2023-08-08T06:33:43;15.10;99.90
33269;DHT22;19640;50.944;5.260;2023-08-08T06:36:09;15.30;99.90
33269;DHT22;19640;50.944;5.260;2023-08-08T06:38:34;15.50;99.90
33269;DHT22;19640;50.944;5.260;2023-08-08T06:41:01;15.70;99.90
33269;DHT22;19640;50.944;5.260;2023-08-08T06:43:27;15.70;99.90
33269;DHT22;19640;50.944;5.260;2023-08-08T06:45:53;15.80;99.90
33269;DHT22;19640;50.944;5.260;2023-08-08T06:48:19;16.00;99.90
33269;DHT22;19640;50.944;5.260;2023-08-08T06:50:46;16.00;99.90
33269;DHT22;19640;50.944;5.260;2023-08-08T06:53:11;16.10;99.90
33269;DHT22;19640;50.944;5.260;2023-08-08T06:55:37;16.00;99.90
33269;DHT22;19640;50.944;5.260;2023-08-08T06:58:03;16.10;99.90
33269;DHT22;19640;50.944;5.260;2023-08-08T07:00:29;16.30;99.90
33269;DHT22;19640;50.944;5.260;2023-08-08T07:02:55;16.20;99.90
33269;DHT22;19640;50.944;5.260;2023-08-08T07:05:21;16.20;99.90
33269;DHT22;19640;50.944;5.260;2023-08-08T07:07:49;16.00;99.90
33269;DHT22;19640;50.944;5.260;2023-08-08T07:10:15;16.10;99.90
33269;DHT22;19640;50.944;5.260;2023-08-08T07:12:41;16.00;99.90
33269;DHT22;19640;50.944;5.260;2023-08-08T07:15:09;16.20;99.90
33269;DHT22;19640;50.944;5.260;2023-08-08T07:17:35;16.50;99.90
33269;DHT22;19640;50.944;5.260;2023-08-08T07:20:01;16.50;99.90
33269;DHT22;19640;50.944;5.260;2023-08-08T07:22:28;16.40;99.90
33269;DHT22;19640;50.944;5.260;2023-08-08T07:24:54;16.50;99.90
33269;DHT22;19640;50.944;5.260;2023-08-08T07:27:20;16.50;99.90
33269;DHT22;19640;50.944;5.260;2023-08-08T07:29:45;16.80;99.90
33269;DHT22;19640;50.944;5.260;2023-08-08T07:32:11;17.30;99.90
33269;DHT22;19640;50.944;5.260;2023-08-08T07:34:37;17.60;99.90
33269;DHT22;19640;50.944;5.260;2023-08-08T07:37:04;17.60;99.90
33269;DHT22;19640;50.944;5.260;2023-08-08T07:39:29;17.50;99.90
33269;DHT22;19640;50.944;5.260;2023-08-08T07:41:55;17.50;99.90
33269;DHT22;19640;50.944;5.260;2023-08-08T07:44:21;17.50;99.90
33269;DHT22;19640;50.944;5.260;2023-08-08T07:46:47;17.30;99.90
33269;DHT22;19640;50.944;5.260;2023-08-08T07:49:13;17.30;99.90
33269;DHT22;19640;50.944;5.260;2023-08-08T07:51:38;17.60;99.90
33269;DHT22;19640;50.944;5.260;2023-08-08T07:54:04;17.70;99.90
33269;DHT22;19640;50.944;5.260;2023-08-08T07:56:36;17.60;99.90
33269;DHT22;19640;50.944;5.260;2023-08-08T07:59:02;17.60;99.90
33269;DHT22;19640;50.944;5.260;2023-08-08T08:01:28;17.90;99.90
33269;DHT22;19640;50.944;5.260;2023-08-08T08:03:54;18.00;99.90
33269;DHT22;19640;50.944;5.260;2023-08-08T08:06:20;18.20;99.90
33269;DHT22;19640;50.944;5.260;2023-08-08T08:08:46;18.20;99.90
33269;DHT22;19640;50.944;5.260;2023-08-08T08:11:11;17.70;99.90
33269;DHT22;19640;50.944;5.260;2023-08-08T08:13:39;17.60;99.90
33269;DHT22;19640;50.944;5.260;2023-08-08T08:16:05;17.70;99.90
33269;DHT22;19640;50.944;5.260;2023-08-08T08:18:31;17.60;99.90
33269;DHT22;19640;50.944;5.260;2023-08-08T08:20:57;17.50;99.90
33269;DHT22;19640;50.944;5.260;2023-08-08T08:23:23;17.60;99.90
33269;DHT22;19640;50.944;5.260;2023-08-08T08:25:49;17.80;99.90
33269;DHT22;19640;50.944;5.260;2023-08-08T08:28:16;18.00;99.90
33269;DHT22;19640;50.944;5.260;2023-08-08T08:30:42;18.10;99.90
33269;DHT22;19640;50.944;5.260;2023-08-08T08:33:08;18.00;99.90
33269;DHT22;19640;50.944;5.260;2023-08-08T08:35:37;18.20;99.90
33269;DHT22;19640;50.944;5.260;2023-08-08T08:38:04;18.10;99.90
33269;DHT22;19640;50.944;5.260;2023-08-08T08:40:36;18.00;99.90
33269;DHT22;19640;50.944;5.260;2023-08-08T08:43:02;17.80;99.90
33269;DHT22;19640;50.944;5.260;2023-08-08T08:45:29;17.90;99.90
33269;DHT22;19640;50.944;5.260;2023-08-08T08:47:56;17.70;99.90
33269;DHT22;19640;50.944;5.260;2023-08-08T08:50:23;17.70;99.90
33269;DHT22;19640;50.944;5.260;2023-08-08T08:52:52;17.60;99.90
33269;DHT22;19640;50.944;5.260;2023-08-08T08:55:21;17.80;99.90
33269;DHT22;19640;50.944;5.260;2023-08-08T08:57:48;17.80;99.90
33269;DHT22;19640;50.944;5.260;2023-08-08T09:00:14;17.80;99.90
33269;DHT22;19640;50.944;5.260;2023-08-08T09:02:41;18.00;99.90
33269;DHT22;19640;50.944;5.260;2023-08-08T09:05:07;18.00;99.90
33269;DHT22;19640;50.944;5.260;2023-08-08T09:07:35;18.30;99.90
33269;DHT22;19640;50.944;5.260;2023-08-08T09:10:02;18.00;99.90
33269;DHT22;19640;50.944;5.260;2023-08-08T09:12:29;18.10;99.90
33269;DHT22;19640;50.944;5.260;2023-08-08T09:14:57;18.40;99.90
33269;DHT22;19640;50.944;5.260;2023-08-08T09:17:25;18.50;99.90
33269;DHT22;19640;50.944;5.260;2023-08-08T09:19:53;18.60;99.90
33269;DHT22;19640;50.944;5.260;2023-08-08T09:22:19;18.40;99.90
33269;DHT22;19640;50.944;5.260;2023-08-08T09:24:44;18.60;99.90
33269;DHT22;19640;50.944;5.260;2023-08-08T09:27:12;18.70;99.90
33269;DHT22;19640;50.944;5.260;2023-08-08T09:29:38;18.50;99.90
33269;DHT22;19640;50.944;5.260;2023-08-08T09:32:08;18.40;99.90
33269;DHT22;19640;50.944;5.260;2023-08-08T09:34:34;18.60;99.90
33269;DHT22;19640;50.944;5.260;2023-08-08T09:37:00;18.80;99.90
33269;DHT22;19640;50.944;5.260;2023-08-08T09:39:28;19.10;99.90
33269;DHT22;19640;50.944;5.260;2023-08-08T09:41:55;19.20;99.90
33269;DHT22;19640;50.944;5.260;2023-08-08T09:44:25;19.40;99.90
33269;DHT22;19640;50.944;5.260;2023-08-08T09:46:53;19.30;99.90
33269;DHT22;19640;50.944;5.260;2023-08-08T09:49:19;19.30;99.90
33269;DHT22;19640;50.944;5.260;2023-08-08T09:51:46;19.60;99.90
33269;DHT22;19640;50.944;5.260;2023-08-08T09:54:12;19.70;99.90
33269;DHT22;19640;50.944;5.260;2023-08-08T09:56:39;19.50;99.90
33269;DHT22;19640;50.944;5.260;2023-08-08T09:59:05;19.50;99.90
33269;DHT22;19640;50.944;5.260;2023-08-08T10:01:31;19.60;99.90
33269;DHT22;19640;50.944;5.260;2023-08-08T10:03:58;19.60;99.90
33269;DHT22;19640;50.944;5.260;2023-08-08T10:06:24;19.60;99.90
33269;DHT22;19640;50.944;5.260;2023-08-08T10:08:50;19.30;99.90
33269;DHT22;19640;50.944;5.260;2023-08-08T10:11:16;19.40;99.90
33269;DHT22;19640;50.944;5.260;2023-08-08T10:13:50;19.60;99.90
33269;DHT22;19640;50.944;5.260;2023-08-08T10:16:17;19.50;99.90
33269;DHT22;19640;50.944;5.260;2023-08-08T10:19:05;19.50;99.90
33269;DHT22;19640;50.944;5.260;2023-08-08T10:21:37;19.60;99.90
33269;DHT22;19640;50.944;5.260;2023-08-08T10:24:07;19.70;99.90
33269;DHT22;19640;50.944;5.260;2023-08-08T10:26:34;19.60;99.90
33269;DHT22;19640;50.944;5.260;2023-08-08T10:29:00;19.60;99.90
33269;DHT22;19640;50.944;5.260;2023-08-08T10:31:27;19.70;99.90
33269;DHT22;19640;50.944;5.260;2023-08-08T10:34:04;19.50;99.90
33269;DHT22;19640;50.944;5.260;2023-08-08T10:36:49;19.40;99.90
33269;DHT22;19640;50.944;5.260;2023-08-08T10:39:17;19.40;99.90
33269;DHT22;19640;50.944;5.260;2023-08-08T10:41:49;19.50;99.90
33269;DHT22;19640;50.944;5.260;2023-08-08T10:44:22;19.40;99.90
33269;DHT22;19640;50.944;5.260;2023-08-08T10:46:49;19.10;99.90
33269;DHT22;19640;50.944;5.260;2023-08-08T10:49:17;19.00;99.90
33269;DHT22;19640;50.944;5.260;2023-08-08T10:51:44;18.90;99.90
33269;DHT22;19640;50.944;5.260;2023-08-08T10:54:20;19.10;99.90
33269;DHT22;19640;50.944;5.260;2023-08-08T10:56:57;19.10;99.90
33269;DHT22;19640;50.944;5.260;2023-08-08T10:59:35;19.30;99.90
33269;DHT22;19640;50.944;5.260;2023-08-08T11:02:01;19.20;99.90
33269;DHT22;19640;50.944;5.260;2023-08-08T11:04:27;19.50;99.90
33269;DHT22;19640;50.944;5.260;2023-08-08T11:06:55;19.70;99.90
33269;DHT22;19640;50.944;5.260;2023-08-08T11:09:21;19.70;99.90
33269;DHT22;19640;50.944;5.260;2023-08-08T11:11:48;19.80;99.90
33269;DHT22;19640;50.944;5.260;2023-08-08T11:14:15;19.80;99.90
33269;DHT22;19640;50.944;5.260;2023-08-08T11:16:42;19.70;99.90
33269;DHT22;19640;50.944;5.260;2023-08-08T11:19:09;19.60;99.90
33269;DHT22;19640;50.944;5.260;2023-08-08T11:21:36;19.80;99.90
33269;DHT22;19640;50.944;5.260;2023-08-08T11:24:04;19.50;99.90
33269;DHT22;19640;50.944;5.260;2023-08-08T11:26:30;19.40;99.90
33269;DHT22;19640;50.944;5.260;2023-08-08T11:28:59;19.30;99.90
33269;DHT22;19640;50.944;5.260;2023-08-08T11:31:26;19.40;99.90
33269;DHT22;19640;50.944;5.260;2023-08-08T11:33:53;19.10;99.90
33269;DHT22;19640;50.944;5.260;2023-08-08T11:36:19;18.60;99.90
33269;DHT22;19640;50.944;5.260;2023-08-08T11:38:46;18.60;99.90
33269;DHT22;19640;50.944;5.260;2023-08-08T11:41:16;18.80;99.90
33269;DHT22;19640;50.944;5.260;2023-08-08T11:43:43;18.70;99.90
33269;DHT22;19640;50.944;5.260;2023-08-08T11:46:12;18.80;99.90
33269;DHT22;19640;50.944;5.260;2023-08-08T11:48:39;18.90;99.90
33269;DHT22;19640;50.944;5.260;2023-08-08T11:51:05;19.00;99.90
33269;DHT22;19640;50.944;5.260;2023-08-08T11:53:32;19.00;99.90
33269;DHT22;19640;50.944;5.260;2023-08-08T11:55:59;19.00;99.90
33269;DHT22;19640;50.944;5.260;2023-08-08T11:58:25;19.00;99.90
33269;DHT22;19640;50.944;5.260;2023-08-08T12:00:52;18.90;99.90
33269;DHT22;19640;50.944;5.260;2023-08-08T12:03:20;19.10;99.90
33269;DHT22;19640;50.944;5.260;2023-08-08T12:05:47;19.40;99.90
33269;DHT22;19640;50.944;5.260;2023-08-08T12:08:12;19.70;99.90
33269;DHT22;19640;50.944;5.260;2023-08-08T12:10:39;19.80;99.90
33269;DHT22;19640;50.944;5.260;2023-08-08T12:13:07;19.90;99.90
33269;DHT22;19640;50.944;5.260;2023-08-08T12:15:35;19.90;99.90
33269;DHT22;19640;50.944;5.260;2023-08-08T12:18:02;19.80;99.90
33269;DHT22;19640;50.944;5.260;2023-08-08T12:20:29;19.80;99.90
33269;DHT22;19640;50.944;5.260;2023-08-08T12:22:57;19.80;99.90
33269;DHT22;19640;50.944;5.260;2023-08-08T12:25:22;20.00;99.90
33269;DHT22;19640;50.944;5.260;2023-08-08T12:27:48;20.00;99.90
33269;DHT22;19640;50.944;5.260;2023-08-08T12:30:15;20.20;99.90
33269;DHT22;19640;50.944;5.260;2023-08-08T12:32:40;20.20;99.90
33269;DHT22;19640;50.944;5.260;2023-08-08T12:35:06;20.40;99.90
33269;DHT22;19640;50.944;5.260;2023-08-08T12:37:33;20.50;99.90
33269;DHT22;19640;50.944;5.260;2023-08-08T12:39:58;20.50;99.90
33269;DHT22;19640;50.944;5.260;2023-08-08T12:42:25;20.70;99.90
33269;DHT22;19640;50.944;5.260;2023-08-08T12:44:50;20.80;99.90
33269;DHT22;19640;50.944;5.260;2023-08-08T12:47:19;20.90;99.90
33269;DHT22;19640;50.944;5.260;2023-08-08T12:49:47;21.10;99.90
33269;DHT22;19640;50.944;5.260;2023-08-08T12:52:14;20.70;99.90
33269;DHT22;19640;50.944;5.260;2023-08-08T12:54:40;20.70;99.90
33269;DHT22;19640;50.944;5.260;2023-08-08T12:57:06;20.90;99.90
33269;DHT22;19640;50.944;5.260;2023-08-08T12:59:31;20.70;99.90
33269;DHT22;19640;50.944;5.260;2023-08-08T13:01:57;20.70;99.90
33269;DHT22;19640;50.944;5.260;2023-08-08T13:04:23;20.70;99.90
33269;DHT22;19640;50.944;5.260;2023-08-08T13:06:49;20.70;99.90
33269;DHT22;19640;50.944;5.260;2023-08-08T13:09:14;20.80;99.90
33269;DHT22;19640;50.944;5.260;2023-08-08T13:11:41;20.70;99.90
33269;DHT22;19640;50.944;5.260;2023-08-08T13:14:07;20.70;99.90
33269;DHT22;19640;50.944;5.260;2023-08-08T13:16:32;20.60;99.90
33269;DHT22;19640;50.944;5.260;2023-08-08T13:18:58;20.50;99.90
33269;DHT22;19640;50.944;5.260;2023-08-08T13:21:24;20.50;99.90
33269;DHT22;19640;50.944;5.260;2023-08-08T13:23:49;20.40;99.90
33269;DHT22;19640;50.944;5.260;2023-08-08T13:26:15;20.40;99.90
33269;DHT22;19640;50.944;5.260;2023-08-08T13:28:41;20.30;99.90
33269;DHT22;19640;50.944;5.260;2023-08-08T13:31:08;20.60;99.90
33269;DHT22;19640;50.944;5.260;2023-08-08T13:33:34;20.50;99.90
33269;DHT22;19640;50.944;5.260;2023-08-08T13:36:00;20.20;99.90
33269;DHT22;19640;50.944;5.260;2023-08-08T13:38:26;20.40;99.90
33269;DHT22;19640;50.944;5.260;2023-08-08T13:40:52;20.60;99.90
33269;DHT22;19640;50.944;5.260;2023-08-08T13:43:18;20.70;99.90
33269;DHT22;19640;50.944;5.260;2023-08-08T13:45:44;20.80;99.90
33269;DHT22;19640;50.944;5.260;2023-08-08T13:48:10;20.90;99.90
33269;DHT22;19640;50.944;5.260;2023-08-08T13:50:35;21.00;99.90
33269;DHT22;19640;50.944;5.260;2023-08-08T13:53:01;21.10;99.90
33269;DHT22;19640;50.944;5.260;2023-08-08T13:55:27;21.10;99.90
33269;DHT22;19640;50.944;5.260;2023-08-08T13:57:52;21.00;99.90
33269;DHT22;19640;50.944;5.260;2023-08-08T14:00:20;21.00;99.90
33269;DHT22;19640;50.944;5.260;2023-08-08T14:02:47;20.90;99.90
33269;DHT22;19640;50.944;5.260;2023-08-08T14:05:13;20.70;99.90
33269;DHT22;19640;50.944;5.260;2023-08-08T14:07:38;20.70;99.90
33269;DHT22;19640;50.944;5.260;2023-08-08T14:10:05;20.70;99.90
33269;DHT22;19640;50.944;5.260;2023-08-08T14:12:31;20.70;99.90
33269;DHT22;19640;50.944;5.260;2023-08-08T14:14:57;20.60;99.90
33269;DHT22;19640;50.944;5.260;2023-08-08T14:17:23;20.40;99.90
33269;DHT22;19640;50.944;5.260;2023-08-08T14:19:48;20.30;99.90
33269;DHT22;19640;50.944;5.260;2023-08-08T14:22:14;20.10;99.90
33269;DHT22;19640;50.944;5.260;2023-08-08T14:24:41;20.20;99.90
33269;DHT22;19640;50.944;5.260;2023-08-08T14:27:07;20.10;99.90
33269;DHT22;19640;50.944;5.260;2023-08-08T14:29:33;20.30;99.90
33269;DHT22;19640;50.944;5.260;2023-08-08T14:31:59;20.50;99.90
33269;DHT22;19640;50.944;5.260;2023-08-08T14:34:31;20.90;99.90
33269;DHT22;19640;50.944;5.260;2023-08-08T14:36:57;21.20;99.90
33269;DHT22;19640;50.944;5.260;2023-08-08T14:39:24;21.10;99.90
33269;DHT22;19640;50.944;5.260;2023-08-08T14:41:50;21.40;99.90
33269;DHT22;19640;50.944;5.260;2023-08-08T14:44:16;21.30;99.90
33269;DHT22;19640;50.944;5.260;2023-08-08T14:46:42;21.10;99.90
33269;DHT22;19640;50.944;5.260;2023-08-08T14:49:08;21.30;99.90
33269;DHT22;19640;50.944;5.260;2023-08-08T14:51:35;21.20;99.90
33269;DHT22;19640;50.944;5.260;2023-08-08T14:54:01;21.00;99.90
33269;DHT22;19640;50.944;5.260;2023-08-08T14:56:27;21.10;99.90
33269;DHT22;19640;50.944;5.260;2023-08-08T14:58:52;21.20;99.90
33269;DHT22;19640;50.944;5.260;2023-08-08T15:01:18;21.30;99.90
33269;DHT22;19640;50.944;5.260;2023-08-08T15:03:44;21.30;99.90
33269;DHT22;19640;50.944;5.260;2023-08-08T15:06:10;21.50;99.90
33269;DHT22;19640;50.944;5.260;2023-08-08T15:08:35;21.40;99.90
33269;DHT22;19640;50.944;5.260;2023-08-08T15:11:01;21.20;99.90
33269;DHT22;19640;50.944;5.260;2023-08-08T15:13:27;21.00;99.90
33269;DHT22;19640;50.944;5.260;2023-08-08T15:15:54;20.60;99.90
33269;DHT22;19640;50.944;5.260;2023-08-08T15:18:20;20.60;99.90
33269;DHT22;19640;50.944;5.260;2023-08-08T15:20:45;20.80;99.90
33269;DHT22;19640;50.944;5.260;2023-08-08T15:23:11;20.90;99.90
33269;DHT22;19640;50.944;5.260;2023-08-08T15:25:40;21.20;99.90
33269;DHT22;19640;50.944;5.260;2023-08-08T15:28:07;21.30;99.90